sensor_id;sensor_type;location;lat;lon;timestamp;P1;P2;P0
40947;PMS5003;49382;-25.924;28.194;2022-09-06T00:00:14;7;7;
40947;PMS5003;49382;-25.924;28.194;2022-09-06T00:02:38;7;6;
40947;PMS5003;49382;-25.924;28.194;2022-09-06T00:05:03;8;7;
40947;PMS5003;49382;-25.924;28.194;2022-09-06T00:07:28;7;7;
40947;PMS5003;49382;-25.924;28.194;2022-09-06T00:09:53;7;6;
40947;PMS5003;49382;-25.924;28.194;2022-09-06T00:12:18;8;7;
40947;PMS5003;49382;-25.924;28.194;2022-09-06T00:14:43;7;7;
40947;PMS5003;49382;-25.924;28.194;2022-09-06T00:17:08;6;6;
40947;PMS5003;49382;-25.924;28.194;2022-09-06T00:19:33;9;9;
40947;PMS5003;49382;-25.924;28.194;2022-09-06T00:21:58;6;6;
40947;PMS5003;49382;-25.924;28.194;2022-09-06T00:24:23;7;6;
40947;PMS5003;49382;-25.924;28.194;2022-09-06T00:26:48;10;9;
40947;PMS5003;49382;-25.924;28.194;2022-09-06T00:29:13;7;7;
40947;PMS5003;49382;-25.924;28.194;2022-09-06T00:31:38;9;9;
40947;PMS5003;49382;-25.924;28.194;2022-09-06T00:34:03;8;8;
40947;PMS5003;49382;-25.924;28.194;2022-09-06T00:36:28;8;8;
40947;PMS5003;49382;-25.924;28.194;2022-09-06T00:38:53;10;9;
40947;PMS5003;49382;-25.924;28.194;2022-09-06T00:41:18;9;9;
40947;PMS5003;49382;-25.924;28.194;2022-09-06T00:43:43;10;10;
40947;PMS5003;49382;-25.924;28.194;2022-09-06T00:46:09;12;12;
40947;PMS5003;49382;-25.924;28.194;2022-09-06T00:48:34;12;11;
40947;PMS5003;49382;-25.924;28.194;2022-09-06T00:50:59;11;10;
40947;PMS5003;49382;-25.924;28.194;2022-09-06T00:53:25;10;10;
40947;PMS5003;49382;-25.924;28.194;2022-09-06T00:55:49;9;9;
40947;PMS5003;49382;-25.924;28.194;2022-09-06T00:58:15;8;8;
40947;PMS5003;49382;-25.924;28.194;2022-09-06T01:00:40;6;6;
40947;PMS5003;49382;-25.924;28.194;2022-09-06T01:03:05;10;9;
40947;PMS5003;49382;-25.924;28.194;2022-09-06T01:05:32;9;9;
40947;PMS5003;49382;-25.924;28.194;2022-09-06T01:07:58;10;10;
40947;PMS5003;49382;-25.924;28.194;2022-09-06T01:10:27;8;8;
40947;PMS5003;49382;-25.924;28.194;2022-09-06T01:12:46;10;9;
40947;PMS5003;49382;-25.924;28.194;2022-09-06T01:15:13;8;7;
40947;PMS5003;49382;-25.924;28.194;2022-09-06T01:17:38;7;7;
40947;PMS5003;49382;-25.924;28.194;2022-09-06T01:22:33;11;11;
40947;PMS5003;49382;-25.924;28.194;2022-09-06T01:24:56;9;8;
40947;PMS5003;49382;-25.924;28.194;2022-09-06T01:29:43;7;7;
40947;PMS5003;49382;-25.924;28.194;2022-09-06T01:32:08;7;7;
40947;PMS5003;49382;-25.924;28.194;2022-09-06T01:34:33;9;9;
40947;PMS5003;49382;-25.924;28.194;2022-09-06T01:36:56;7;7;
40947;PMS5003;49382;-25.924;28.194;2022-09-06T01:39:22;11;10;
40947;PMS5003;49382;-25.924;28.194;2022-09-06T01:41:46;7;7;
40947;PMS5003;49382;-25.924;28.194;2022-09-06T01:44:11;7;7;
40947;PMS5003;49382;-25.924;28.194;2022-09-06T01:46:37;7;6;
40947;PMS5003;49382;-25.924;28.194;2022-09-06T01:49:06;7;6;
40947;PMS5003;49382;-25.924;28.194;2022-09-06T01:51:28;6;6;
40947;PMS5003;49382;-25.924;28.194;2022-09-06T01:53:58;7;6;
40947;PMS5003;49382;-25.924;28.194;2022-09-06T01:56:21;6;6;
40947;PMS5003;49382;-25.924;28.194;2022-09-06T01:58:51;6;6;
40947;PMS5003;49382;-25.924;28.194;2022-09-06T02:01:08;6;6;
40947;PMS5003;49382;-25.924;28.194;2022-09-06T02:03:33;5;5;
40947;PMS5003;49382;-25.924;28.194;2022-09-06T02:05:58;8;8;
40947;PMS5003;49382;-25.924;28.194;2022-09-06T02:08:24;10;9;
40947;PMS5003;49382;-25.924;28.194;2022-09-06T02:10:49;9;8;
40947;PMS5003;49382;-25.924;28.194;2022-09-06T02:13:13;3;3;
40947;PMS5003;49382;-25.924;28.194;2022-09-06T02:15:39;5;4;
40947;PMS5003;49382;-25.924;28.194;2022-09-06T02:18:04;7;6;
40947;PMS5003;49382;-25.924;28.194;2022-09-06T02:20:29;8;8;
40947;PMS5003;49382;-25.924;28.194;2022-09-06T02:22:54;7;6;
40947;PMS5003;49382;-25.924;28.194;2022-09-06T02:25:20;8;8;
40947;PMS5003;49382;-25.924;28.194;2022-09-06T02:27:43;8;7;
40947;PMS5003;49382;-25.924;28.194;2022-09-06T02:30:09;7;7;
40947;PMS5003;49382;-25.924;28.194;2022-09-06T02:32:36;5;5;
40947;PMS5003;49382;-25.924;28.194;2022-09-06T02:34:58;5;4;
40947;PMS5003;49382;-25.924;28.194;2022-09-06T02:37:24;6;6;
40947;PMS5003;49382;-25.924;28.194;2022-09-06T02:39:49;9;9;
40947;PMS5003;49382;-25.924;28.194;2022-09-06T02:42:14;6;6;
40947;PMS5003;49382;-25.924;28.194;2022-09-06T02:44:39;4;4;
40947;PMS5003;49382;-25.924;28.194;2022-09-06T02:47:04;5;5;
40947;PMS5003;49382;-25.924;28.194;2022-09-06T02:49:29;7;7;
40947;PMS5003;49382;-25.924;28.194;2022-09-06T02:51:54;5;5;
40947;PMS5003;49382;-25.924;28.194;2022-09-06T02:54:20;5;5;
40947;PMS5003;49382;-25.924;28.194;2022-09-06T02:56:44;5;5;
40947;PMS5003;49382;-25.924;28.194;2022-09-06T02:59:09;6;5;
40947;PMS5003;49382;-25.924;28.194;2022-09-06T03:01:34;4;4;
40947;PMS5003;49382;-25.924;28.194;2022-09-06T03:04:00;5;5;
40947;PMS5003;49382;-25.924;28.194;2022-09-06T03:06:26;6;6;
40947;PMS5003;49382;-25.924;28.194;2022-09-06T03:08:50;6;6;
40947;PMS5003;49382;-25.924;28.194;2022-09-06T03:11:15;5;5;
40947;PMS5003;49382;-25.924;28.194;2022-09-06T03:13:40;6;5;
40947;PMS5003;49382;-25.924;28.194;2022-09-06T03:16:05;6;6;
40947;PMS5003;49382;-25.924;28.194;2022-09-06T03:18:30;7;7;
40947;PMS5003;49382;-25.924;28.194;2022-09-06T03:20:55;6;6;
40947;PMS5003;49382;-25.924;28.194;2022-09-06T03:23:20;8;8;
40947;PMS5003;49382;-25.924;28.194;2022-09-06T03:25:45;7;7;
40947;PMS5003;49382;-25.924;28.194;2022-09-06T03:28:10;4;4;
40947;PMS5003;49382;-25.924;28.194;2022-09-06T03:30:35;7;7;
40947;PMS5003;49382;-25.924;28.194;2022-09-06T03:33:00;6;6;
40947;PMS5003;49382;-25.924;28.194;2022-09-06T03:35:25;8;8;
40947;PMS5003;49382;-25.924;28.194;2022-09-06T03:37:50;10;8;
40947;PMS5003;49382;-25.924;28.194;2022-09-06T03:40:15;8;8;
40947;PMS5003;49382;-25.924;28.194;2022-09-06T03:42:40;7;7;
40947;PMS5003;49382;-25.924;28.194;2022-09-06T03:45:06;9;9;
40947;PMS5003;49382;-25.924;28.194;2022-09-06T03:47:31;12;10;
40947;PMS5003;49382;-25.924;28.194;2022-09-06T03:49:56;12;10;
40947;PMS5003;49382;-25.924;28.194;2022-09-06T03:52:21;10;9;
40947;PMS5003;49382;-25.924;28.194;2022-09-06T03:54:46;10;9;
40947;PMS5003;49382;-25.924;28.194;2022-09-06T03:57:11;11;10;
40947;PMS5003;49382;-25.924;28.194;2022-09-06T03:59:36;10;10;
40947;PMS5003;49382;-25.924;28.194;2022-09-06T04:02:01;9;9;
40947;PMS5003;49382;-25.924;28.194;2022-09-06T04:04:26;11;11;
40947;PMS5003;49382;-25.924;28.194;2022-09-06T04:06:51;14;14;
40947;PMS5003;49382;-25.924;28.194;2022-09-06T04:09:16;10;9;
40947;PMS5003;49382;-25.924;28.194;2022-09-06T04:11:41;11;10;
40947;PMS5003;49382;-25.924;28.194;2022-09-06T04:14:06;10;10;
40947;PMS5003;49382;-25.924;28.194;2022-09-06T04:16:31;13;13;
40947;PMS5003;49382;-25.924;28.194;2022-09-06T04:18:57;11;11;
40947;PMS5003;49382;-25.924;28.194;2022-09-06T04:21:22;13;13;
40947;PMS5003;49382;-25.924;28.194;2022-09-06T04:23:47;13;13;
40947;PMS5003;49382;-25.924;28.194;2022-09-06T04:26:12;13;13;
40947;PMS5003;49382;-25.924;28.194;2022-09-06T04:28:37;14;13;
40947;PMS5003;49382;-25.924;28.194;2022-09-06T04:31:02;14;13;
40947;PMS5003;49382;-25.924;28.194;2022-09-06T04:33:28;14;13;
40947;PMS5003;49382;-25.924;28.194;2022-09-06T04:35:53;10;10;
40947;PMS5003;49382;-25.924;28.194;2022-09-06T04:38:18;13;13;
40947;PMS5003;49382;-25.924;28.194;2022-09-06T04:40:43;12;10;
40947;PMS5003;49382;-25.924;28.194;2022-09-06T04:43:08;9;9;
40947;PMS5003;49382;-25.924;28.194;2022-09-06T04:45:33;11;11;
40947;PMS5003;49382;-25.924;28.194;2022-09-06T04:47:58;11;10;
40947;PMS5003;49382;-25.924;28.194;2022-09-06T04:50:23;15;14;
40947;PMS5003;49382;-25.924;28.194;2022-09-06T04:52:48;15;15;
40947;PMS5003;49382;-25.924;28.194;2022-09-06T04:55:14;16;15;
40947;PMS5003;49382;-25.924;28.194;2022-09-06T04:57:39;17;15;
40947;PMS5003;49382;-25.924;28.194;2022-09-06T05:00:05;14;13;
40947;PMS5003;49382;-25.924;28.194;2022-09-06T05:02:29;14;13;
40947;PMS5003;49382;-25.924;28.194;2022-09-06T05:04:54;12;12;
40947;PMS5003;49382;-25.924;28.194;2022-09-06T05:07:20;12;11;
40947;PMS5003;49382;-25.924;28.194;2022-09-06T05:09:45;13;13;
40947;PMS5003;49382;-25.924;28.194;2022-09-06T05:12:11;16;15;
40947;PMS5003;49382;-25.924;28.194;2022-09-06T05:14:36;12;12;
40947;PMS5003;49382;-25.924;28.194;2022-09-06T05:17:01;9;9;
40947;PMS5003;49382;-25.924;28.194;2022-09-06T05:19:26;11;10;
40947;PMS5003;49382;-25.924;28.194;2022-09-06T05:21:51;10;10;
40947;PMS5003;49382;-25.924;28.194;2022-09-06T05:24:17;9;9;
40947;PMS5003;49382;-25.924;28.194;2022-09-06T05:26:42;10;10;
40947;PMS5003;49382;-25.924;28.194;2022-09-06T05:29:07;10;10;
40947;PMS5003;49382;-25.924;28.194;2022-09-06T05:31:32;10;9;
40947;PMS5003;49382;-25.924;28.194;2022-09-06T05:33:57;11;11;
40947;PMS5003;49382;-25.924;28.194;2022-09-06T05:36:22;13;12;
40947;PMS5003;49382;-25.924;28.194;2022-09-06T05:38:47;12;12;
40947;PMS5003;49382;-25.924;28.194;2022-09-06T05:41:12;13;12;
40947;PMS5003;49382;-25.924;28.194;2022-09-06T05:43:37;12;11;
40947;PMS5003;49382;-25.924;28.194;2022-09-06T05:46:03;17;17;
40947;PMS5003;49382;-25.924;28.194;2022-09-06T05:48:28;17;17;
40947;PMS5003;49382;-25.924;28.194;2022-09-06T05:53:18;14;13;
40947;PMS5003;49382;-25.924;28.194;2022-09-06T05:55:43;15;15;
40947;PMS5003;49382;-25.924;28.194;2022-09-06T05:58:08;16;13;
40947;PMS5003;49382;-25.924;28.194;2022-09-06T06:00:33;13;13;
40947;PMS5003;49382;-25.924;28.194;2022-09-06T06:02:58;15;15;
40947;PMS5003;49382;-25.924;28.194;2022-09-06T06:05:24;19;18;
40947;PMS5003;49382;-25.924;28.194;2022-09-06T06:07:49;16;16;
40947;PMS5003;49382;-25.924;28.194;2022-09-06T06:10:14;19;17;
40947;PMS5003;49382;-25.924;28.194;2022-09-06T06:12:39;15;15;
40947;PMS5003;49382;-25.924;28.194;2022-09-06T06:15:05;23;22;
40947;PMS5003;49382;-25.924;28.194;2022-09-06T06:17:30;41;40;
40947;PMS5003;49382;-25.924;28.194;2022-09-06T06:19:56;29;29;
40947;PMS5003;49382;-25.924;28.194;2022-09-06T06:22:21;55;54;
40947;PMS5003;49382;-25.924;28.194;2022-09-06T06:24:47;32;31;
40947;PMS5003;49382;-25.924;28.194;2022-09-06T06:27:13;23;21;
40947;PMS5003;49382;-25.924;28.194;2022-09-06T06:29:38;24;24;
40947;PMS5003;49382;-25.924;28.194;2022-09-06T06:32:04;15;14;
40947;PMS5003;49382;-25.924;28.194;2022-09-06T06:34:29;17;17;
40947;PMS5003;49382;-25.924;28.194;2022-09-06T06:36:54;7;7;
40947;PMS5003;49382;-25.924;28.194;2022-09-06T06:39:19;7;7;
40947;PMS5003;49382;-25.924;28.194;2022-09-06T06:41:44;8;8;
40947;PMS5003;49382;-25.924;28.194;2022-09-06T06:44:09;10;10;
40947;PMS5003;49382;-25.924;28.194;2022-09-06T06:46:35;12;10;
40947;PMS5003;49382;-25.924;28.194;2022-09-06T06:49:00;7;6;
40947;PMS5003;49382;-25.924;28.194;2022-09-06T06:51:27;8;6;
40947;PMS5003;49382;-25.924;28.194;2022-09-06T06:53:52;7;7;
40947;PMS5003;49382;-25.924;28.194;2022-09-06T06:56:18;11;10;
40947;PMS5003;49382;-25.924;28.194;2022-09-06T06:58:44;8;8;
40947;PMS5003;49382;-25.924;28.194;2022-09-06T07:01:09;10;9;
40947;PMS5003;49382;-25.924;28.194;2022-09-06T07:03:35;11;10;
40947;PMS5003;49382;-25.924;28.194;2022-09-06T07:06:01;13;13;
40947;PMS5003;49382;-25.924;28.194;2022-09-06T07:08:27;10;10;
40947;PMS5003;49382;-25.924;28.194;2022-09-06T07:10:53;14;13;
40947;PMS5003;49382;-25.924;28.194;2022-09-06T07:13:18;12;12;
40947;PMS5003;49382;-25.924;28.194;2022-09-06T07:15:43;12;11;
40947;PMS5003;49382;-25.924;28.194;2022-09-06T07:18:09;13;13;
40947;PMS5003;49382;-25.924;28.194;2022-09-06T07:20:35;10;10;
40947;PMS5003;49382;-25.924;28.194;2022-09-06T07:23:02;17;16;
40947;PMS5003;49382;-25.924;28.194;2022-09-06T07:25:27;9;9;
40947;PMS5003;49382;-25.924;28.194;2022-09-06T07:27:55;10;9;
40947;PMS5003;49382;-25.924;28.194;2022-09-06T07:30:18;9;9;
40947;PMS5003;49382;-25.924;28.194;2022-09-06T07:32:44;9;8;
40947;PMS5003;49382;-25.924;28.194;2022-09-06T07:35:09;8;7;
40947;PMS5003;49382;-25.924;28.194;2022-09-06T07:37:35;8;6;
40947;PMS5003;49382;-25.924;28.194;2022-09-06T07:40:00;6;6;
40947;PMS5003;49382;-25.924;28.194;2022-09-06T07:42:26;32;32;
40947;PMS5003;49382;-25.924;28.194;2022-09-06T07:44:52;24;23;
40947;PMS5003;49382;-25.924;28.194;2022-09-06T07:47:16;13;13;
40947;PMS5003;49382;-25.924;28.194;2022-09-06T07:49:42;9;9;
40947;PMS5003;49382;-25.924;28.194;2022-09-06T07:52:08;8;8;
40947;PMS5003;49382;-25.924;28.194;2022-09-06T07:54:34;9;8;
40947;PMS5003;49382;-25.924;28.194;2022-09-06T07:56:59;9;9;
40947;PMS5003;49382;-25.924;28.194;2022-09-06T07:59:26;9;8;
40947;PMS5003;49382;-25.924;28.194;2022-09-06T08:01:51;8;8;
40947;PMS5003;49382;-25.924;28.194;2022-09-06T08:04:17;8;8;
40947;PMS5003;49382;-25.924;28.194;2022-09-06T08:06:43;7;7;
40947;PMS5003;49382;-25.924;28.194;2022-09-06T08:09:09;9;9;
40947;PMS5003;49382;-25.924;28.194;2022-09-06T08:11:35;7;7;
40947;PMS5003;49382;-25.924;28.194;2022-09-06T08:14:01;8;8;
40947;PMS5003;49382;-25.924;28.194;2022-09-06T08:16:27;17;16;
40947;PMS5003;49382;-25.924;28.194;2022-09-06T08:18:52;7;6;
40947;PMS5003;49382;-25.924;28.194;2022-09-06T08:21:18;9;9;
40947;PMS5003;49382;-25.924;28.194;2022-09-06T08:23:44;8;7;
40947;PMS5003;49382;-25.924;28.194;2022-09-06T08:26:09;65;65;
40947;PMS5003;49382;-25.924;28.194;2022-09-06T08:28:34;212;212;
40947;PMS5003;49382;-25.924;28.194;2022-09-06T08:33:26;82;82;
40947;PMS5003;49382;-25.924;28.194;2022-09-06T08:35:54;34;34;
40947;PMS5003;49382;-25.924;28.194;2022-09-06T08:38:16;13;13;
40947;PMS5003;49382;-25.924;28.194;2022-09-06T08:40:41;10;10;
40947;PMS5003;49382;-25.924;28.194;2022-09-06T08:43:10;11;11;
40947;PMS5003;49382;-25.924;28.194;2022-09-06T08:45:32;24;24;
40947;PMS5003;49382;-25.924;28.194;2022-09-06T08:47:57;38;37;
40947;PMS5003;49382;-25.924;28.194;2022-09-06T08:50:23;20;20;
40947;PMS5003;49382;-25.924;28.194;2022-09-06T08:52:50;20;20;
40947;PMS5003;49382;-25.924;28.194;2022-09-06T08:55:19;23;23;
40947;PMS5003;49382;-25.924;28.194;2022-09-06T08:57:44;14;14;
40947;PMS5003;49382;-25.924;28.194;2022-09-06T09:00:07;18;18;
40947;PMS5003;49382;-25.924;28.194;2022-09-06T09:02:33;33;33;
40947;PMS5003;49382;-25.924;28.194;2022-09-06T09:04:57;46;46;
40947;PMS5003;49382;-25.924;28.194;2022-09-06T09:07:32;55;55;
40947;PMS5003;49382;-25.924;28.194;2022-09-06T09:09:47;105;105;
40947;PMS5003;49382;-25.924;28.194;2022-09-06T09:12:13;172;172;
40947;PMS5003;49382;-25.924;28.194;2022-09-06T09:14:38;182;181;
40947;PMS5003;49382;-25.924;28.194;2022-09-06T09:17:05;203;202;
40947;PMS5003;49382;-25.924;28.194;2022-09-06T09:19:29;130;130;
40947;PMS5003;49382;-25.924;28.194;2022-09-06T09:21:54;183;183;
40947;PMS5003;49382;-25.924;28.194;2022-09-06T09:24:20;145;145;
40947;PMS5003;49382;-25.924;28.194;2022-09-06T09:26:48;29;29;
40947;PMS5003;49382;-25.924;28.194;2022-09-06T09:29:11;24;23;
40947;PMS5003;49382;-25.924;28.194;2022-09-06T09:31:37;26;26;
40947;PMS5003;49382;-25.924;28.194;2022-09-06T09:34:02;16;16;
40947;PMS5003;49382;-25.924;28.194;2022-09-06T09:36:28;34;34;
40947;PMS5003;49382;-25.924;28.194;2022-09-06T09:38:53;26;25;
40947;PMS5003;49382;-25.924;28.194;2022-09-06T09:41:24;24;24;
40947;PMS5003;49382;-25.924;28.194;2022-09-06T09:46:16;20;20;
40947;PMS5003;49382;-25.924;28.194;2022-09-06T09:48:35;19;19;
40947;PMS5003;49382;-25.924;28.194;2022-09-06T09:53:26;25;24;
40947;PMS5003;49382;-25.924;28.194;2022-09-06T09:55:55;31;31;
40947;PMS5003;49382;-25.924;28.194;2022-09-06T09:58:19;35;35;
40947;PMS5003;49382;-25.924;28.194;2022-09-06T10:00:42;42;42;
40947;PMS5003;49382;-25.924;28.194;2022-09-06T10:03:11;28;28;
40947;PMS5003;49382;-25.924;28.194;2022-09-06T10:05:33;35;35;
40947;PMS5003;49382;-25.924;28.194;2022-09-06T10:07:58;24;24;
40947;PMS5003;49382;-25.924;28.194;2022-09-06T10:10:25;31;29;
40947;PMS5003;49382;-25.924;28.194;2022-09-06T10:20:07;34;34;
40947;PMS5003;49382;-25.924;28.194;2022-09-06T10:22:33;58;58;
40947;PMS5003;49382;-25.924;28.194;2022-09-06T10:25:01;60;59;
40947;PMS5003;49382;-25.924;28.194;2022-09-06T10:27:24;53;53;
40947;PMS5003;49382;-25.924;28.194;2022-09-06T10:29:48;54;54;
40947;PMS5003;49382;-25.924;28.194;2022-09-06T10:32:19;76;76;
40947;PMS5003;49382;-25.924;28.194;2022-09-06T10:37:07;97;97;
40947;PMS5003;49382;-25.924;28.194;2022-09-06T10:39:32;112;112;
40947;PMS5003;49382;-25.924;28.194;2022-09-06T10:41:57;128;128;
40947;PMS5003;49382;-25.924;28.194;2022-09-06T10:44:25;77;76;
40947;PMS5003;49382;-25.924;28.194;2022-09-06T10:46:45;66;66;
40947;PMS5003;49382;-25.924;28.194;2022-09-06T10:49:12;71;71;
40947;PMS5003;49382;-25.924;28.194;2022-09-06T10:51:37;20;20;
40947;PMS5003;49382;-25.924;28.194;2022-09-06T10:54:04;20;19;
40947;PMS5003;49382;-25.924;28.194;2022-09-06T10:56:30;19;19;
40947;PMS5003;49382;-25.924;28.194;2022-09-06T10:58:53;28;28;
40947;PMS5003;49382;-25.924;28.194;2022-09-06T11:01:22;19;18;
40947;PMS5003;49382;-25.924;28.194;2022-09-06T11:03:44;18;18;
40947;PMS5003;49382;-25.924;28.194;2022-09-06T11:06:09;53;52;
40947;PMS5003;49382;-25.924;28.194;2022-09-06T11:08:37;28;27;
40947;PMS5003;49382;-25.924;28.194;2022-09-06T11:11:01;27;27;
40947;PMS5003;49382;-25.924;28.194;2022-09-06T11:13:26;40;39;
40947;PMS5003;49382;-25.924;28.194;2022-09-06T11:15:53;29;27;
40947;PMS5003;49382;-25.924;28.194;2022-09-06T11:18:17;27;27;
40947;PMS5003;49382;-25.924;28.194;2022-09-06T11:20:43;26;26;
40947;PMS5003;49382;-25.924;28.194;2022-09-06T11:25:40;29;28;
40947;PMS5003;49382;-25.924;28.194;2022-09-06T11:27:59;38;38;
40947;PMS5003;49382;-25.924;28.194;2022-09-06T11:30:24;39;39;
40947;PMS5003;49382;-25.924;28.194;2022-09-06T11:32:50;42;42;
40947;PMS5003;49382;-25.924;28.194;2022-09-06T11:37:40;45;45;
40947;PMS5003;49382;-25.924;28.194;2022-09-06T11:40:07;53;53;
40947;PMS5003;49382;-25.924;28.194;2022-09-06T11:49:46;68;68;
40947;PMS5003;49382;-25.924;28.194;2022-09-06T11:54:40;99;98;
40947;PMS5003;49382;-25.924;28.194;2022-09-06T11:57:09;141;141;
40947;PMS5003;49382;-25.924;28.194;2022-09-06T11:59:30;92;91;
40947;PMS5003;49382;-25.924;28.194;2022-09-06T12:04:20;92;92;
40947;PMS5003;49382;-25.924;28.194;2022-09-06T12:11:37;182;182;
40947;PMS5003;49382;-25.924;28.194;2022-09-06T12:14:02;138;138;
40947;PMS5003;49382;-25.924;28.194;2022-09-06T12:18:54;110;109;
40947;PMS5003;49382;-25.924;28.194;2022-09-06T12:23:45;70;70;
40947;PMS5003;49382;-25.924;28.194;2022-09-06T12:26:10;90;90;
40947;PMS5003;49382;-25.924;28.194;2022-09-06T12:31:02;26;25;
40947;PMS5003;49382;-25.924;28.194;2022-09-06T12:33:28;52;52;
40947;PMS5003;49382;-25.924;28.194;2022-09-06T12:35:52;94;94;
40947;PMS5003;49382;-25.924;28.194;2022-09-06T12:38:21;73;73;
40947;PMS5003;49382;-25.924;28.194;2022-09-06T12:40:44;45;45;
40947;PMS5003;49382;-25.924;28.194;2022-09-06T12:43:09;65;64;
40947;PMS5003;49382;-25.924;28.194;2022-09-06T12:45:34;28;28;
40947;PMS5003;49382;-25.924;28.194;2022-09-06T12:48:03;35;35;
40947;PMS5003;49382;-25.924;28.194;2022-09-06T12:50:24;26;25;
40947;PMS5003;49382;-25.924;28.194;2022-09-06T12:52:50;17;17;
40947;PMS5003;49382;-25.924;28.194;2022-09-06T12:55:18;20;18;
40947;PMS5003;49382;-25.924;28.194;2022-09-06T13:00:07;18;18;
40947;PMS5003;49382;-25.924;28.194;2022-09-06T13:02:33;21;21;
40947;PMS5003;49382;-25.924;28.194;2022-09-06T13:05:00;18;18;
40947;PMS5003;49382;-25.924;28.194;2022-09-06T13:07:23;22;20;
40947;PMS5003;49382;-25.924;28.194;2022-09-06T13:09:50;18;18;
40947;PMS5003;49382;-25.924;28.194;2022-09-06T13:12:17;19;19;
40947;PMS5003;49382;-25.924;28.194;2022-09-06T13:14:41;18;18;
40947;PMS5003;49382;-25.924;28.194;2022-09-06T13:17:06;20;20;
40947;PMS5003;49382;-25.924;28.194;2022-09-06T13:19:33;19;18;
40947;PMS5003;49382;-25.924;28.194;2022-09-06T13:21:57;19;19;
40947;PMS5003;49382;-25.924;28.194;2022-09-06T13:24:23;16;16;
40947;PMS5003;49382;-25.924;28.194;2022-09-06T13:26:48;21;19;
40947;PMS5003;49382;-25.924;28.194;2022-09-06T13:31:42;18;17;
40947;PMS5003;49382;-25.924;28.194;2022-09-06T13:34:06;18;18;
40947;PMS5003;49382;-25.924;28.194;2022-09-06T13:36:32;20;20;
40947;PMS5003;49382;-25.924;28.194;2022-09-06T13:38:57;21;21;
40947;PMS5003;49382;-25.924;28.194;2022-09-06T13:43:48;22;22;
40947;PMS5003;49382;-25.924;28.194;2022-09-06T13:46:14;20;20;
40947;PMS5003;49382;-25.924;28.194;2022-09-06T13:48:39;19;19;
40947;PMS5003;49382;-25.924;28.194;2022-09-06T13:51:05;24;23;
40947;PMS5003;49382;-25.924;28.194;2022-09-06T13:53:30;21;21;
40947;PMS5003;49382;-25.924;28.194;2022-09-06T13:55:56;19;19;
40947;PMS5003;49382;-25.924;28.194;2022-09-06T13:58:21;20;19;
40947;PMS5003;49382;-25.924;28.194;2022-09-06T14:00:47;19;19;
40947;PMS5003;49382;-25.924;28.194;2022-09-06T14:03:14;20;20;
40947;PMS5003;49382;-25.924;28.194;2022-09-06T14:05:38;27;27;
40947;PMS5003;49382;-25.924;28.194;2022-09-06T14:08:03;31;30;
40947;PMS5003;49382;-25.924;28.194;2022-09-06T14:10:28;32;32;
40947;PMS5003;49382;-25.924;28.194;2022-09-06T14:12:54;23;22;
40947;PMS5003;49382;-25.924;28.194;2022-09-06T14:15:19;26;26;
40947;PMS5003;49382;-25.924;28.194;2022-09-06T14:17:44;33;33;
40947;PMS5003;49382;-25.924;28.194;2022-09-06T14:20:09;32;32;
40947;PMS5003;49382;-25.924;28.194;2022-09-06T14:22:35;25;24;
40947;PMS5003;49382;-25.924;28.194;2022-09-06T14:25:00;38;37;
40947;PMS5003;49382;-25.924;28.194;2022-09-06T14:27:26;34;34;
40947;PMS5003;49382;-25.924;28.194;2022-09-06T14:29:51;20;20;
40947;PMS5003;49382;-25.924;28.194;2022-09-06T14:32:16;22;22;
40947;PMS5003;49382;-25.924;28.194;2022-09-06T14:34:42;31;29;
40947;PMS5003;49382;-25.924;28.194;2022-09-06T14:37:07;22;20;
40947;PMS5003;49382;-25.924;28.194;2022-09-06T14:39:33;27;27;
40947;PMS5003;49382;-25.924;28.194;2022-09-06T14:41:58;25;25;
40947;PMS5003;49382;-25.924;28.194;2022-09-06T14:44:23;20;20;
40947;PMS5003;49382;-25.924;28.194;2022-09-06T14:46:49;55;55;
40947;PMS5003;49382;-25.924;28.194;2022-09-06T14:49:14;43;42;
40947;PMS5003;49382;-25.924;28.194;2022-09-06T14:51:40;53;52;
40947;PMS5003;49382;-25.924;28.194;2022-09-06T14:54:06;24;23;
40947;PMS5003;49382;-25.924;28.194;2022-09-06T14:56:31;82;81;
40947;PMS5003;49382;-25.924;28.194;2022-09-06T14:58:56;29;29;
40947;PMS5003;49382;-25.924;28.194;2022-09-06T15:01:25;23;22;
40947;PMS5003;49382;-25.924;28.194;2022-09-06T15:03:48;23;23;
40947;PMS5003;49382;-25.924;28.194;2022-09-06T15:06:14;128;128;
40947;PMS5003;49382;-25.924;28.194;2022-09-06T15:08:39;37;37;
40947;PMS5003;49382;-25.924;28.194;2022-09-06T15:11:04;67;66;
40947;PMS5003;49382;-25.924;28.194;2022-09-06T15:13:30;34;34;
40947;PMS5003;49382;-25.924;28.194;2022-09-06T15:15:55;41;41;
40947;PMS5003;49382;-25.924;28.194;2022-09-06T15:18:21;28;27;
40947;PMS5003;49382;-25.924;28.194;2022-09-06T15:20:47;27;27;
40947;PMS5003;49382;-25.924;28.194;2022-09-06T15:23:12;25;25;
40947;PMS5003;49382;-25.924;28.194;2022-09-06T15:25:42;22;21;
40947;PMS5003;49382;-25.924;28.194;2022-09-06T15:28:03;29;29;
40947;PMS5003;49382;-25.924;28.194;2022-09-06T15:30:29;21;21;
40947;PMS5003;49382;-25.924;28.194;2022-09-06T15:32:54;23;23;
40947;PMS5003;49382;-25.924;28.194;2022-09-06T15:35:19;32;32;
40947;PMS5003;49382;-25.924;28.194;2022-09-06T15:37:46;30;30;
40947;PMS5003;49382;-25.924;28.194;2022-09-06T15:40:10;18;18;
40947;PMS5003;49382;-25.924;28.194;2022-09-06T15:42:35;19;19;
40947;PMS5003;49382;-25.924;28.194;2022-09-06T15:45:01;38;38;
40947;PMS5003;49382;-25.924;28.194;2022-09-06T15:47:27;25;25;
40947;PMS5003;49382;-25.924;28.194;2022-09-06T15:49:52;50;50;
40947;PMS5003;49382;-25.924;28.194;2022-09-06T15:52:18;31;30;
40947;PMS5003;49382;-25.924;28.194;2022-09-06T15:54:42;32;32;
40947;PMS5003;49382;-25.924;28.194;2022-09-06T15:57:08;33;33;
40947;PMS5003;49382;-25.924;28.194;2022-09-06T15:59:34;40;40;
40947;PMS5003;49382;-25.924;28.194;2022-09-06T16:01:59;43;43;
40947;PMS5003;49382;-25.924;28.194;2022-09-06T16:04:24;32;31;
40947;PMS5003;49382;-25.924;28.194;2022-09-06T16:06:50;31;31;
40947;PMS5003;49382;-25.924;28.194;2022-09-06T16:09:16;33;32;
40947;PMS5003;49382;-25.924;28.194;2022-09-06T16:11:41;28;27;
40947;PMS5003;49382;-25.924;28.194;2022-09-06T16:14:08;46;45;
40947;PMS5003;49382;-25.924;28.194;2022-09-06T16:16:32;71;71;
40947;PMS5003;49382;-25.924;28.194;2022-09-06T16:18:58;65;64;
40947;PMS5003;49382;-25.924;28.194;2022-09-06T16:21:24;96;96;
40947;PMS5003;49382;-25.924;28.194;2022-09-06T16:23:50;21;20;
40947;PMS5003;49382;-25.924;28.194;2022-09-06T16:26:14;16;16;
40947;PMS5003;49382;-25.924;28.194;2022-09-06T16:28:40;18;18;
40947;PMS5003;49382;-25.924;28.194;2022-09-06T16:31:06;20;20;
40947;PMS5003;49382;-25.924;28.194;2022-09-06T16:33:31;19;19;
40947;PMS5003;49382;-25.924;28.194;2022-09-06T16:35:57;23;22;
40947;PMS5003;49382;-25.924;28.194;2022-09-06T16:38:21;18;18;
40947;PMS5003;49382;-25.924;28.194;2022-09-06T16:40:47;24;24;